Startpagina
METAR-TAF:

METAR-TAF

Vliegvelden :

Vliegbasis Bevekom

Bevekom, België

breedte: 50-45N, lengte: 004-46E, hoogte: 105 m

Actueel weer

Dit bericht is 43 minuten geleden gemaakt, om 20:55 UTC
Wind 2 kt uit variabele richting
Temperatuur 21°C
Vochtigheid 60%
Druk 1013 hPa
Zicht 10 km of meer
lichte regen

METAR: EBBE 162055Z AUTO VRB02KT 9999 -RA OVC095/// 21/13 Q1013 BLU

Tijdstip: 23:38 (21:38 UTC)

Verwachting

Dit bericht is 5 uur en het 57 minuten geleden gemaakt, om 15:41 UTC
Verwachting geldig van 16 om 19 UTC tot 17 om 07 UTC
Wind 5 kt uit het oosten
Zicht 10 km of meer
Weinig wolken op 6500 ft
Gebroken wolken op 22000 ft

TAF: EBBE 161541Z 1619/1707 08005KT 9999 FEW065 BKN220

Waarnemingen en weersverwachtingen van meer dan 4000 vliegvelden (METAR en TAF).

De beschikbare stations zijn de gele en rode punten op de kaart.

Ga met uw muis naar het station om de naam te zien.

Klik dan om waarnemingen en weersverwachtingen te zien.

kaart wijzigen: klik op de groene knoppen met een zwart kruis om in te zoomen, op de groene knop met een streepje om uit te zoomen of op de groene pijlen voor aangrenzende kaarten.


METAR-TAF: